Time;durP1;ratioP1;P1;durP2;ratioP2;P2;SDS_P1;SDS_P2;PMS_P1;PMS_P2;Temp;Humidity;BMP_temperature;BMP_pressure;BME280_temperature;BME280_humidity;BME280_pressure;Samples;Min_cycle;Max_cycle;Signal;HPM_P1;HPM_P2
2022/12/11 00:51:18;;;;;;;22.43;13.37;;;;;;;0.96;100.00;98040.50;6273111;22;20215;-89
2022/12/11 01:00:09;;;;;;;21.55;12.65;;;;;;;1.07;100.00;98032.03;6261629;22;20213;-85
2022/12/11 01:02:37;;;;;;;26.47;15.13;;;;;;;1.06;100.00;98025.94;6180951;23;20407;-81
2022/12/11 01:05:05;;;;;;;25.13;15.00;;;;;;;1.11;100.00;98023.53;6171013;23;20226;-81
2022/12/11 01:07:32;;;;;;;25.13;15.37;;;;;;;1.07;100.00;98018.84;6160731;23;20229;-82
2022/12/11 01:12:45;;;;;;;23.53;14.40;;;;;;;1.07;100.00;98022.31;6184514;23;20289;-82
2022/12/11 01:15:12;;;;;;;21.00;12.60;;;;;;;1.09;100.00;98015.00;6180764;23;20214;-82
2022/12/11 01:17:39;;;;;;;21.23;13.17;;;;;;;1.11;100.00;98023.53;6174233;23;20678;-85
2022/12/11 01:20:06;;;;;;;24.43;13.03;;;;;;;1.15;100.00;98023.94;6187744;23;20217;-80
2022/12/11 01:22:34;;;;;;;23.90;13.20;;;;;;;1.10;100.00;98016.63;6178950;23;20206;-81
2022/12/11 01:25:01;;;;;;;22.03;14.57;;;;;;;1.14;100.00;98017.03;6204552;23;20209;-82
2022/12/11 01:27:29;;;;;;;23.67;14.40;;;;;;;1.22;100.00;98012.38;6180166;23;20305;-81
2022/12/11 01:29:56;;;;;;;23.97;14.07;;;;;;;1.05;100.00;98018.22;6180272;23;20261;-82
2022/12/11 01:32:23;;;;;;;23.27;14.47;;;;;;;1.22;100.00;98030.03;6178261;23;20221;-81
2022/12/11 01:34:50;;;;;;;24.63;15.20;;;;;;;1.10;100.00;98029.00;6206950;23;20214;-81
2022/12/11 01:37:18;;;;;;;26.33;14.77;;;;;;;1.13;100.00;98018.84;6181330;23;20210;-81
2022/12/11 01:39:45;;;;;;;20.47;12.60;;;;;;;1.05;100.00;98032.22;6181638;23;20213;-81
2022/12/11 01:42:19;;;;;;;26.13;15.27;;;;;;;1.11;100.00;98033.28;6205929;23;20241;-81
2022/12/11 01:44:46;;;;;;;22.90;14.17;;;;;;;1.10;100.00;98050.09;6178119;23;20237;-85
2022/12/11 01:47:13;;;;;;;23.37;14.03;;;;;;;1.11;100.00;98034.09;6199808;23;20266;-82
2022/12/11 01:49:41;;;;;;;21.33;14.33;;;;;;;1.10;100.00;98044.81;6173164;23;20725;-86
2022/12/11 01:52:14;;;;;;;23.60;14.03;;;;;;;1.08;100.00;98052.09;6176628;23;20206;-80
2022/12/11 01:54:41;;;;;;;21.90;13.43;;;;;;;1.03;100.00;98038.69;6201739;23;20201;-86
2022/12/11 01:57:10;;;;;;;22.90;13.23;;;;;;;1.03;100.00;98047.41;6199054;23;20240;-82
2022/12/11 01:59:40;;;;;;;20.57;13.47;;;;;;;0.99;100.00;98040.91;6195466;23;20214;-84
2022/12/11 02:02:13;;;;;;;23.57;14.00;;;;;;;1.00;100.00;98034.63;6194202;23;20226;-81
2022/12/11 02:04:42;;;;;;;21.97;13.23;;;;;;;0.95;100.00;98028.31;6202927;23;20194;-82
2022/12/11 02:07:10;;;;;;;24.87;14.20;;;;;;;0.97;100.00;98035.06;6203574;23;20214;-81
2022/12/11 02:09:41;;;;;;;20.77;13.03;;;;;;;1.05;100.00;98041.97;6175799;23;20230;-81
2022/12/11 02:12:16;;;;;;;21.77;13.33;;;;;;;0.97;100.00;98053.50;6176235;23;20205;-81
2022/12/11 02:14:59;;;;;;;22.83;13.90;;;;;;;0.97;100.00;98052.69;6210200;23;20261;-80
2022/12/11 02:23:42;;;;;;;19.47;11.93;;;;;;;0.99;100.00;98054.09;6255357;22;20207;-86
2022/12/11 02:26:37;;;;;;;20.23;11.87;;;;;;;0.94;100.00;98043.34;6257278;23;20259;-89
2022/12/11 02:29:08;;;;;;;18.87;12.53;;;;;;;0.91;100.00;98045.56;6232031;23;20208;-83
2022/12/11 02:31:41;;;;;;;16.70;11.07;;;;;;;0.89;100.00;98030.75;6172892;23;20184;-82
2022/12/11 02:34:19;;;;;;;16.90;10.27;;;;;;;1.06;100.00;98051.50;6242088;23;20211;-88
2022/12/11 02:37:12;;;;;;;16.30;10.60;;;;;;;1.05;100.00;98045.41;6266424;23;20212;-88
2022/12/11 02:39:46;;;;;;;17.13;10.20;;;;;;;0.97;100.00;98027.13;6232123;23;20227;-89
2022/12/11 02:42:23;;;;;;;14.40;8.83;;;;;;;1.06;100.00;98033.88;6235484;23;20192;-90
2022/12/11 03:31:35;;;;;;;10.03;6.43;;;;;;;0.96;100.00;98008.88;6212117;23;20192;-83
2022/12/11 03:34:30;;;;;;;8.43;5.57;;;;;;;0.92;100.00;98012.91;6185603;23;20204;-80
2022/12/11 04:08:08;;;;;;;7.67;4.87;;;;;;;1.22;100.00;98019.47;6233143;23;20224;-88
2022/12/11 04:11:33;;;;;;;7.17;4.80;;;;;;;1.17;100.00;98006.88;6230977;23;20189;-88
2022/12/11 04:34:26;;;;;;;9.90;6.57;;;;;;;1.14;100.00;98033.69;6205624;23;20281;-80
2022/12/11 04:36:53;;;;;;;10.10;7.20;;;;;;;0.95;100.00;98031.78;6182371;23;20206;-81
2022/12/11 04:39:22;;;;;;;9.20;6.50;;;;;;;0.99;100.00;98027.72;6181927;23;20191;-82
2022/12/11 04:41:51;;;;;;;11.53;7.07;;;;;;;0.98;100.00;98027.94;6185978;23;20187;-81
2022/12/11 04:44:18;;;;;;;10.77;7.10;;;;;;;0.89;100.00;98030.75;6179380;23;20222;-81
2022/12/11 04:46:46;;;;;;;10.47;6.50;;;;;;;0.89;100.00;98043.09;6208201;23;20206;-82
2022/12/11 04:49:13;;;;;;;9.90;7.00;;;;;;;0.88;100.00;98062.59;6156892;23;20210;-82
2022/12/11 04:51:40;;;;;;;10.50;6.57;;;;;;;0.93;100.00;98054.91;6205335;23;20210;-82
2022/12/11 14:25:20;;;;;;;10.63;8.17;;;;;;;0.36;100.00;98222.00;6257547;22;20207;-79
2022/12/11 14:27:49;;;;;;;12.43;8.50;;;;;;;0.34;100.00;98218.72;6204804;23;20208;-80
2022/12/11 14:30:26;;;;;;;10.07;8.00;;;;;;;0.29;100.00;98215.84;6203183;23;20204;-80
2022/12/11 14:32:57;;;;;;;9.37;7.80;;;;;;;0.35;100.00;98224.81;6182481;23;20215;-80
2022/12/11 14:35:38;;;;;;;10.43;8.13;;;;;;;0.30;100.00;98235.91;6240291;23;20212;-81
2022/12/11 14:38:22;;;;;;;9.83;7.73;;;;;;;0.30;100.00;98230.66;6212617;23;20213;-80
2022/12/11 14:40:55;;;;;;;11.03;7.60;;;;;;;0.20;100.00;98235.41;6183362;23;20211;-80
2022/12/11 14:43:28;;;;;;;11.90;8.10;;;;;;;0.18;100.00;98241.88;6258630;23;20208;-80
2022/12/11 14:45:59;;;;;;;10.80;8.77;;;;;;;-0.04;100.00;98231.31;6230760;23;20253;-79
2022/12/11 14:48:33;;;;;;;11.77;8.80;;;;;;;-0.02;100.00;98263.56;6202024;23;20287;-80
2022/12/11 14:51:03;;;;;;;11.17;8.90;;;;;;;-0.14;100.00;98267.66;6207108;23;20205;-80
2022/12/11 14:53:41;;;;;;;10.83;8.30;;;;;;;-0.09;100.00;98256.56;6232615;23;20208;-81
2022/12/11 14:56:16;;;;;;;11.07;8.13;;;;;;;-0.07;100.00;98265.09;6231650;23;20288;-80
2022/12/11 14:58:51;;;;;;;12.90;9.13;;;;;;;-0.03;100.00;98269.00;6174642;23;20200;-80
2022/12/11 15:01:23;;;;;;;12.33;8.90;;;;;;;-0.08;100.00;98272.19;6224099;23;20208;-81
2022/12/11 15:04:01;;;;;;;11.07;8.33;;;;;;;-0.14;100.00;98282.66;6226651;23;20212;-81
2022/12/11 15:06:50;;;;;;;13.43;9.17;;;;;;;-0.19;100.00;98279.75;6201765;23;20280;-80
2022/12/11 15:09:25;;;;;;;12.90;8.77;;;;;;;-0.16;100.00;98288.09;6208177;23;20275;-80
2022/12/11 15:11:58;;;;;;;14.00;9.53;;;;;;;-0.05;100.00;98286.81;6209911;23;20153;-81
2022/12/11 15:14:44;;;;;;;15.77;9.80;;;;;;;-0.13;100.00;98292.97;6231253;23;20219;-80
2022/12/11 15:17:13;;;;;;;10.83;8.47;;;;;;;-0.21;100.00;98285.19;6203208;23;20175;-78
2022/12/11 15:19:40;;;;;;;12.47;9.23;;;;;;;-0.19;100.00;98291.09;6263399;23;20164;-81
2022/12/11 15:22:14;;;;;;;11.67;8.93;;;;;;;-0.23;100.00;98289.81;6219065;22;20180;-83
2022/12/11 17:00:05;;;;;;;8.20;5.73;;;;;;;-0.63;100.00;98320.03;6235630;23;20219;-80
2022/12/11 17:02:32;;;;;;;7.88;6.90;;;;;;;-0.77;100.00;98320.03;6182438;23;20723;-80
2022/12/11 17:04:59;;;;;;;7.17;6.20;;;;;;;-0.62;100.00;98323.50;6214373;23;20204;-81
2022/12/11 17:07:26;;;;;;;7.93;5.90;;;;;;;-0.58;100.00;98322.13;6193188;23;20751;-82
2022/12/11 17:09:53;;;;;;;8.47;6.43;;;;;;;-0.63;100.00;98327.94;6244807;23;20213;-80
2022/12/11 17:12:26;;;;;;;8.30;6.70;;;;;;;-0.67;100.00;98325.84;6190110;23;20288;-80
2022/12/11 17:14:54;;;;;;;8.27;6.33;;;;;;;-0.69;100.00;98326.00;6166863;23;20227;-81
2022/12/11 17:17:20;;;;;;;9.80;6.80;;;;;;;-0.66;100.00;98324.84;6165192;23;20229;-80
2022/12/11 17:19:47;;;;;;;10.90;8.17;;;;;;;-0.69;100.00;98327.81;6213183;23;20207;-81
2022/12/11 17:22:14;;;;;;;13.03;8.83;;;;;;;-0.64;100.00;98322.84;6211909;23;20722;-80
2022/12/11 17:24:41;;;;;;;11.50;8.27;;;;;;;-0.53;100.00;98323.22;6188475;23;20220;-81
2022/12/11 17:27:07;;;;;;;12.53;8.37;;;;;;;-0.54;100.00;98328.66;6187873;23;20240;-80
2022/12/11 17:29:34;;;;;;;10.80;8.07;;;;;;;-0.61;100.00;98325.97;6240642;23;20200;-80
2022/12/11 17:32:02;;;;;;;11.40;8.43;;;;;;;-0.70;100.00;98326.22;6187299;23;20209;-79
2022/12/11 17:34:29;;;;;;;12.57;8.07;;;;;;;-0.57;100.00;98331.66;6161700;23;20208;-80
2022/12/11 17:37:03;;;;;;;11.10;8.67;;;;;;;-0.64;100.00;98336.00;6168672;23;20207;-79
2022/12/11 17:39:30;;;;;;;11.37;8.40;;;;;;;-0.69;100.00;98343.59;6214555;23;20247;-80
2022/12/11 17:41:57;;;;;;;12.10;8.93;;;;;;;-0.68;100.00;98346.06;6159261;23;20217;-80
2022/12/11 17:44:25;;;;;;;11.33;8.70;;;;;;;-0.81;100.00;98350.31;6188695;23;20243;-80
2022/12/11 17:46:52;;;;;;;13.07;9.37;;;;;;;-0.81;100.00;98345.06;6189128;23;20212;-79
2022/12/11 17:49:19;;;;;;;13.10;9.33;;;;;;;-0.88;100.00;98347.56;6215080;23;20208;-80
2022/12/11 17:51:46;;;;;;;13.27;10.10;;;;;;;-0.87;100.00;98357.09;6188061;23;20215;-80
2022/12/11 17:54:13;;;;;;;12.43;9.67;;;;;;;-0.76;100.00;98351.41;6211891;23;20542;-80
2022/12/11 17:56:40;;;;;;;13.83;9.87;;;;;;;-0.76;100.00;98353.22;6185187;23;20430;-79
2022/12/11 17:59:07;;;;;;;13.13;9.80;;;;;;;-0.88;100.00;98360.72;6204314;23;20258;-80
2022/12/11 18:01:34;;;;;;;13.43;9.97;;;;;;;-0.82;100.00;98362.63;6210966;23;20228;-82
2022/12/11 18:04:01;;;;;;;12.87;9.70;;;;;;;-0.85;100.00;98357.75;6186942;23;20219;-82
2022/12/11 18:06:28;;;;;;;15.57;11.10;;;;;;;-0.96;100.00;98363.41;6215073;23;20212;-80
2022/12/11 18:08:56;;;;;;;14.03;10.50;;;;;;;-0.94;100.00;98362.25;6166759;23;20204;-80
2022/12/11 18:11:22;;;;;;;16.13;10.70;;;;;;;-0.86;100.00;98371.88;6215786;23;20205;-81
2022/12/11 18:13:51;;;;;;;14.23;10.37;;;;;;;-0.89;100.00;98369.63;6189663;23;20847;-81
2022/12/11 18:16:25;;;;;;;14.10;10.17;;;;;;;-0.91;100.00;98368.97;6213165;23;20278;-79
2022/12/11 18:18:52;;;;;;;17.23;11.37;;;;;;;-0.87;100.00;98367.59;6239362;23;20208;-80
2022/12/11 18:21:27;;;;;;;15.00;11.07;;;;;;;-1.01;100.00;98363.94;6187809;23;20228;-80
2022/12/11 18:23:54;;;;;;;15.87;11.97;;;;;;;-0.99;100.00;98366.41;6187608;23;20259;-79
2022/12/11 18:26:21;;;;;;;15.03;11.27;;;;;;;-0.94;100.00;98367.53;6185195;23;20225;-79
2022/12/11 18:28:49;;;;;;;14.80;10.90;;;;;;;-0.86;100.00;98364.00;6186302;23;20208;-82
2022/12/11 18:31:17;;;;;;;15.40;10.87;;;;;;;-1.05;100.00;98367.94;6211723;23;20307;-81
2022/12/11 18:33:45;;;;;;;12.77;10.00;;;;;;;-0.78;100.00;98370.97;6211900;23;20217;-80
2022/12/11 18:36:13;;;;;;;13.23;10.20;;;;;;;-0.77;100.00;98365.56;6186756;23;20287;-80
2022/12/11 18:38:41;;;;;;;13.47;10.57;;;;;;;-0.86;100.00;98368.44;6188610;23;20279;-80
2022/12/11 18:41:10;;;;;;;12.70;10.20;;;;;;;-0.90;100.00;98365.34;6190011;23;20217;-81
2022/12/11 18:43:39;;;;;;;13.77;10.60;;;;;;;-0.91;100.00;98366.34;6214295;23;20235;-80
2022/12/11 18:46:14;;;;;;;14.13;11.17;;;;;;;-0.93;100.00;98374.38;6197627;23;20204;-79
2022/12/11 18:48:42;;;;;;;15.47;10.97;;;;;;;-0.93;100.00;98363.06;6190292;23;20521;-79
2022/12/11 18:51:12;;;;;;;14.83;10.70;;;;;;;-0.86;100.00;98366.63;6214968;23;20287;-80
2022/12/11 18:53:39;;;;;;;13.03;10.50;;;;;;;-0.92;100.00;98373.41;6211829;23;20219;-81
2022/12/11 18:56:11;;;;;;;15.33;11.73;;;;;;;-1.05;100.00;98367.09;6212115;23;20269;-79
2022/12/11 18:58:38;;;;;;;14.77;11.00;;;;;;;-0.95;100.00;98368.50;6185005;23;20282;-80
2022/12/11 19:01:07;;;;;;;14.77;11.33;;;;;;;-0.92;100.00;98372.59;6186564;23;20265;-79
2022/12/11 19:03:34;;;;;;;12.17;9.80;;;;;;;-0.89;100.00;98369.63;6212777;23;20236;-81
2022/12/11 19:06:27;;;;;;;14.87;11.27;;;;;;;-0.88;100.00;98372.03;6189196;23;20426;-80
2022/12/11 19:09:04;;;;;;;14.80;10.27;;;;;;;-1.00;100.00;98370.84;6233737;23;20195;-81
2022/12/11 19:11:40;;;;;;;14.20;10.10;;;;;;;-0.90;100.00;98365.34;6196944;23;20404;-79
2022/12/11 19:14:08;;;;;;;14.47;10.00;;;;;;;-0.80;100.00;98371.19;6217068;23;20205;-79
2022/12/11 19:16:38;;;;;;;14.03;9.80;;;;;;;-0.92;100.00;98370.78;6240000;23;20224;-79
2022/12/11 19:19:08;;;;;;;14.50;10.17;;;;;;;-0.86;100.00;98365.81;6185829;23;21537;-80
2022/12/11 19:21:39;;;;;;;13.47;10.00;;;;;;;-0.82;100.00;98369.72;6210046;23;20627;-80
2022/12/11 19:24:07;;;;;;;11.93;9.30;;;;;;;-0.86;100.00;98369.25;6211124;23;20212;-81
2022/12/11 19:26:35;;;;;;;13.13;9.80;;;;;;;-0.90;100.00;98355.66;6187345;23;20360;-80
2022/12/11 19:29:02;;;;;;;13.43;9.30;;;;;;;-0.81;100.00;98363.47;6185367;23;20299;-80
2022/12/11 19:31:30;;;;;;;11.70;8.97;;;;;;;-0.96;100.00;98361.59;6162158;23;20291;-79
2022/12/11 19:33:57;;;;;;;11.77;8.53;;;;;;;-0.84;100.00;98361.97;6185009;23;20238;-80
2022/12/11 19:36:26;;;;;;;11.80;8.63;;;;;;;-0.97;100.00;98356.53;6160977;23;20236;-80
2022/12/11 19:38:53;;;;;;;12.30;9.30;;;;;;;-0.99;100.00;98364.59;6187424;22;20213;-81
2022/12/11 19:41:28;;;;;;;11.77;8.97;;;;;;;-0.87;100.00;98364.97;6213118;23;20212;-79
2022/12/11 19:43:56;;;;;;;11.73;9.03;;;;;;;-1.00;100.00;98356.88;6188036;23;20219;-80
2022/12/11 19:46:24;;;;;;;11.13;8.77;;;;;;;-0.96;100.00;98366.88;6212606;23;20295;-81
2022/12/11 19:48:53;;;;;;;9.77;8.17;;;;;;;-0.78;100.00;98361.28;6190172;23;20229;-81
2022/12/11 19:51:23;;;;;;;11.53;8.67;;;;;;;-0.80;100.00;98368.56;6190110;23;20211;-79
2022/12/11 19:53:50;;;;;;;10.07;7.63;;;;;;;-0.94;100.00;98361.44;6214541;23;20235;-81
2022/12/11 19:56:18;;;;;;;10.70;7.93;;;;;;;-0.84;100.00;98355.94;6210413;23;20212;-80
2022/12/11 19:58:47;;;;;;;9.67;8.00;;;;;;;-1.02;100.00;98357.06;6163795;23;20244;-80
2022/12/11 20:01:27;;;;;;;10.73;7.93;;;;;;;-0.92;100.00;98354.19;6200123;23;20292;-80
2022/12/11 20:03:56;;;;;;;11.37;8.03;;;;;;;-0.99;100.00;98350.63;6180646;23;20243;-79
2022/12/11 20:06:23;;;;;;;11.20;8.27;;;;;;;-0.93;100.00;98355.16;6128025;23;20232;-81
2022/12/11 20:08:50;;;;;;;10.30;8.23;;;;;;;-0.94;100.00;98350.94;6155741;23;20827;-80
2022/12/11 20:11:17;;;;;;;9.80;7.43;;;;;;;-0.77;100.00;98360.28;6181950;23;20212;-81
2022/12/11 20:13:48;;;;;;;10.20;7.27;;;;;;;-0.77;100.00;98352.41;6180245;23;20288;-82
2022/12/11 20:16:16;;;;;;;9.63;7.33;;;;;;;-0.84;100.00;98350.69;6153671;23;20198;-79
2022/12/11 20:18:43;;;;;;;9.37;7.30;;;;;;;-0.88;100.00;98353.66;6179203;23;21099;-80
2022/12/11 20:21:13;;;;;;;9.50;7.57;;;;;;;-0.89;100.00;98345.94;6155408;23;20304;-81
2022/12/11 20:23:40;;;;;;;10.17;7.30;;;;;;;-0.84;100.00;98353.31;6179046;23;20938;-79
2022/12/11 20:26:09;;;;;;;8.93;6.97;;;;;;;-0.86;100.00;98353.47;6179039;23;20290;-79
2022/12/11 20:28:36;;;;;;;8.63;6.40;;;;;;;-0.72;100.00;98350.06;6154999;23;20213;-79
2022/12/11 20:31:08;;;;;;;9.80;6.77;;;;;;;-0.83;100.00;98345.22;6155708;23;20287;-79
2022/12/11 20:33:42;;;;;;;10.37;7.30;;;;;;;-0.79;100.00;98346.50;6180241;23;20216;-82
2022/12/11 20:36:10;;;;;;;8.60;7.03;;;;;;;-0.80;100.00;98341.44;6154295;23;20213;-80
2022/12/11 20:38:37;;;;;;;9.97;7.10;;;;;;;-0.77;100.00;98335.81;6155947;23;20236;-80
2022/12/11 20:41:05;;;;;;;9.53;7.33;;;;;;;-0.82;100.00;98330.25;6208272;23;20205;-79
2022/12/11 20:43:32;;;;;;;8.53;6.90;;;;;;;-0.71;100.00;98337.72;6171886;23;20440;-80
2022/12/11 20:45:59;;;;;;;9.90;7.33;;;;;;;-0.72;100.00;98342.16;6147775;23;20201;-79
2022/12/11 20:48:26;;;;;;;9.63;7.07;;;;;;;-0.69;100.00;98340.97;6172004;23;20225;-79
2022/12/11 20:51:08;;;;;;;10.33;7.70;;;;;;;-0.93;100.00;98348.09;6217183;23;20909;-83
2022/12/11 20:53:36;;;;;;;9.27;7.30;;;;;;;-0.80;100.00;98341.44;6186665;23;20213;-79
2022/12/11 20:56:15;;;;;;;9.60;7.40;;;;;;;-0.84;100.00;98346.22;6172163;23;20264;-80
2022/12/11 20:58:42;;;;;;;8.40;6.80;;;;;;;-0.90;100.00;98346.94;6177980;23;20374;-81
2022/12/11 21:01:18;;;;;;;9.97;7.67;;;;;;;-1.01;100.00;98342.09;6123581;23;20252;-80
2022/12/11 21:03:45;;;;;;;10.03;7.27;;;;;;;-0.79;100.00;98353.59;6204718;23;20208;-78
2022/12/11 21:06:25;;;;;;;10.23;7.57;;;;;;;-0.87;100.00;98346.56;6130910;23;20743;-78
2022/12/11 21:08:52;;;;;;;10.93;7.57;;;;;;;-0.81;100.00;98350.31;6174584;23;20271;-79
2022/12/11 21:11:20;;;;;;;10.17;6.97;;;;;;;-0.76;100.00;98346.16;6171004;23;20248;-78
2022/12/11 21:13:49;;;;;;;10.87;8.00;;;;;;;-0.79;100.00;98358.84;6123995;23;20263;-79
2022/12/11 21:16:17;;;;;;;10.40;8.47;;;;;;;-0.71;100.00;98358.78;6178115;23;20235;-82
2022/12/11 21:18:45;;;;;;;10.20;7.43;;;;;;;-0.76;100.00;98347.97;6176140;23;20186;-84
2022/12/11 21:21:12;;;;;;;10.73;8.10;;;;;;;-0.83;100.00;98349.66;6162875;23;20213;-82
2022/12/11 21:23:39;;;;;;;9.90;7.27;;;;;;;-0.72;100.00;98346.59;6154379;23;20247;-81
2022/12/11 21:26:06;;;;;;;8.93;7.10;;;;;;;-0.79;100.00;98351.75;6211848;23;20273;-83
2022/12/11 21:28:35;;;;;;;9.40;7.43;;;;;;;-0.90;100.00;98342.50;6163050;23;20213;-83
2022/12/11 21:31:08;;;;;;;10.43;7.33;;;;;;;-0.89;100.00;98349.38;6205206;23;20280;-81
2022/12/11 21:33:35;;;;;;;10.23;7.37;;;;;;;-0.74;100.00;98357.28;6160125;23;20217;-81
2022/12/11 21:36:02;;;;;;;11.33;7.50;;;;;;;-0.86;100.00;98350.03;6186347;23;20212;-81
2022/12/11 21:38:29;;;;;;;9.60;7.00;;;;;;;-0.80;100.00;98355.41;6180304;23;20214;-82
2022/12/11 21:41:08;;;;;;;10.87;8.00;;;;;;;-0.78;100.00;98356.03;6153041;23;20962;-80
2022/12/11 21:43:35;;;;;;;8.93;6.77;;;;;;;-0.90;100.00;98347.75;6169223;23;20243;-81
2022/12/11 21:46:25;;;;;;;10.70;8.03;;;;;;;-0.86;100.00;98357.91;6157384;23;20787;-81
2022/12/11 21:48:52;;;;;;;10.03;7.57;;;;;;;-0.86;100.00;98358.72;6170972;23;20213;-81
2022/12/11 21:51:21;;;;;;;10.03;7.87;;;;;;;-0.88;100.00;98347.56;6170106;23;20225;-81
2022/12/11 21:53:50;;;;;;;11.43;8.20;;;;;;;-0.69;100.00;98356.75;6169297;23;20237;-82
2022/12/11 21:56:20;;;;;;;9.87;7.10;;;;;;;-0.78;100.00;98349.94;6175225;23;20403;-81
2022/12/11 21:58:47;;;;;;;9.60;7.40;;;;;;;-0.82;100.00;98352.13;6173324;23;20273;-79
2022/12/11 22:01:20;;;;;;;8.93;6.93;;;;;;;-0.80;100.00;98358.03;6203341;23;20213;-80
2022/12/11 22:03:47;;;;;;;10.07;7.70;;;;;;;-0.94;100.00;98348.28;6201234;23;20212;-81
2022/12/11 22:06:15;;;;;;;10.20;7.73;;;;;;;-0.94;100.00;98353.56;6228750;23;20211;-81
2022/12/11 22:08:48;;;;;;;11.20;7.70;;;;;;;-0.81;100.00;98351.13;6222351;23;20200;-84
2022/12/11 22:11:20;;;;;;;9.67;6.77;;;;;;;-0.79;100.00;98343.88;6204801;23;20224;-81
2022/12/11 22:13:47;;;;;;;9.30;6.90;;;;;;;-0.79;100.00;98345.69;6184143;23;20703;-79
2022/12/11 22:16:13;;;;;;;9.47;7.33;;;;;;;-0.89;100.00;98344.13;6226358;23;20213;-82
2022/12/11 22:18:40;;;;;;;9.70;7.00;;;;;;;-0.80;100.00;98352.78;6181464;23;20246;-82
2022/12/11 22:21:07;;;;;;;9.57;7.20;;;;;;;-0.94;100.00;98350.94;6218450;23;20231;-82
2022/12/11 22:23:36;;;;;;;9.90;7.37;;;;;;;-1.01;100.00;98348.19;6209676;23;20319;-81
2022/12/11 22:26:03;;;;;;;9.67;7.67;;;;;;;-0.96;100.00;98353.72;6209847;23;20227;-78
2022/12/11 22:28:29;;;;;;;9.27;7.17;;;;;;;-1.04;100.00;98351.16;6195336;23;20212;-78
2022/12/11 22:30:56;;;;;;;10.50;7.60;;;;;;;-0.97;100.00;98352.06;6194436;23;20698;-77
2022/12/11 22:33:23;;;;;;;8.70;7.00;;;;;;;-0.80;100.00;98354.59;6229322;23;20212;-78
2022/12/11 22:35:57;;;;;;;9.90;7.27;;;;;;;-0.83;100.00;98349.66;6229677;23;21064;-79
2022/12/11 22:38:25;;;;;;;12.60;8.40;;;;;;;-0.89;100.00;98343.31;6179186;23;20261;-79
2022/12/11 22:40:53;;;;;;;9.57;8.03;;;;;;;-0.77;100.00;98356.84;6231799;22;20303;-79
2022/12/11 22:43:20;;;;;;;10.30;8.00;;;;;;;-0.96;100.00;98363.41;6182104;23;20489;-80
2022/12/11 22:45:47;;;;;;;10.40;8.17;;;;;;;-1.01;100.00;98366.56;6184485;23;20258;-79
2022/12/11 22:48:14;;;;;;;11.13;8.17;;;;;;;-0.99;100.00;98366.41;6204256;23;20235;-81
2022/12/11 22:50:41;;;;;;;10.20;7.90;;;;;;;-0.96;100.00;98358.97;6203031;23;20957;-80
2022/12/11 22:53:08;;;;;;;11.63;8.00;;;;;;;-0.86;100.00;98363.16;6179580;23;20307;-81
2022/12/11 22:55:37;;;;;;;9.97;8.00;;;;;;;-0.97;100.00;98357.34;6178594;23;20215;-82
2022/12/11 22:58:04;;;;;;;9.47;7.43;;;;;;;-0.89;100.00;98367.78;6203790;23;20216;-81
2022/12/11 23:00:31;;;;;;;9.67;7.30;;;;;;;-0.96;100.00;98363.41;6180038;23;20304;-83
2022/12/11 23:02:58;;;;;;;9.10;7.60;;;;;;;-0.98;100.00;98366.22;6203910;23;20288;-80
2022/12/11 23:05:25;;;;;;;10.07;7.57;;;;;;;-0.96;100.00;98364.25;6203800;23;20212;-81
2022/12/11 23:07:51;;;;;;;10.03;7.63;;;;;;;-1.00;100.00;98365.59;6204950;23;20909;-81
2022/12/11 23:10:18;;;;;;;9.73;7.50;;;;;;;-1.00;100.00;98357.69;6179304;23;20214;-81
2022/12/11 23:12:45;;;;;;;9.23;7.13;;;;;;;-0.97;100.00;98357.34;6207283;23;20214;-82
2022/12/11 23:15:12;;;;;;;9.37;7.03;;;;;;;-1.02;100.00;98348.34;6182269;23;20243;-83
2022/12/11 23:17:39;;;;;;;9.23;7.00;;;;;;;-1.01;100.00;98355.25;6230138;23;20205;-79
2022/12/11 23:20:06;;;;;;;8.93;6.90;;;;;;;-1.17;100.00;98345.69;6230262;23;20594;-80
2022/12/11 23:22:33;;;;;;;8.87;6.70;;;;;;;-1.14;100.00;98361.09;6230798;23;20236;-81
2022/12/11 23:25:00;;;;;;;8.57;6.60;;;;;;;-1.15;100.00;98359.47;6205238;23;21004;-81
2022/12/11 23:27:26;;;;;;;9.70;6.90;;;;;;;-1.14;100.00;98357.66;6228431;23;20212;-82
2022/12/11 23:29:54;;;;;;;8.63;6.90;;;;;;;-1.17;100.00;98358.84;6200614;23;20299;-81
2022/12/11 23:32:21;;;;;;;8.97;6.50;;;;;;;-1.08;100.00;98367.47;6227350;23;20330;-82
2022/12/11 23:34:47;;;;;;;8.93;6.90;;;;;;;-1.25;100.00;98360.69;6201392;23;20323;-82
2022/12/11 23:37:14;;;;;;;9.30;6.77;;;;;;;-1.17;100.00;98373.78;6150558;23;20308;-81
2022/12/11 23:39:41;;;;;;;8.13;6.40;;;;;;;-1.27;100.00;98367.94;6183303;23;20676;-82
2022/12/11 23:42:08;;;;;;;9.67;6.67;;;;;;;-1.19;100.00;98366.06;6221743;23;20224;-81
2022/12/11 23:44:35;;;;;;;8.70;6.73;;;;;;;-1.27;100.00;98362.69;6223440;23;20212;-80
2022/12/11 23:47:02;;;;;;;8.97;6.83;;;;;;;-1.44;100.00;98352.28;6248892;23;20239;-82
2022/12/11 23:49:28;;;;;;;8.47;6.83;;;;;;;-1.41;100.00;98357.19;6222168;23;20280;-80
2022/12/11 23:51:55;;;;;;;9.57;7.00;;;;;;;-1.53;100.00;98358.56;6171290;23;20205;-81
2022/12/11 23:54:22;;;;;;;8.60;6.47;;;;;;;-1.44;100.00;98361.97;6196541;23;20209;-80
2022/12/11 23:56:49;;;;;;;8.87;6.30;;;;;;;-1.47;100.00;98370.19;6221241;23;20219;-81
2022/12/11 23:59:15;;;;;;;8.47;6.50;;;;;;;-1.53;100.00;98373.50;6220825;23;20274;-81
